sensor_id;sensor_type;location;lat;lon;timestamp;temperature;humidity
13436;DHT22;6790;49.520;8.504;2022-07-17T00:01:35;16.60;74.10
13436;DHT22;6790;49.520;8.504;2022-07-17T00:04:00;16.50;75.20
13436;DHT22;6790;49.520;8.504;2022-07-17T00:06:26;16.50;75.80
13436;DHT22;6790;49.520;8.504;2022-07-17T00:08:52;16.30;76.80
13436;DHT22;6790;49.520;8.504;2022-07-17T00:11:17;16.40;76.60
13436;DHT22;6790;49.520;8.504;2022-07-17T00:13:43;16.30;79.10
13436;DHT22;6790;49.520;8.504;2022-07-17T00:16:09;16.20;79.50
13436;DHT22;6790;49.520;8.504;2022-07-17T00:18:35;16.10;82.20
13436;DHT22;6790;49.520;8.504;2022-07-17T00:21:01;16.00;81.40
13436;DHT22;6790;49.520;8.504;2022-07-17T00:23:26;15.90;83.70
13436;DHT22;6790;49.520;8.504;2022-07-17T00:25:52;15.90;83.90
13436;DHT22;6790;49.520;8.504;2022-07-17T00:28:18;15.80;85.20
13436;DHT22;6790;49.520;8.504;2022-07-17T00:30:43;15.70;83.40
13436;DHT22;6790;49.520;8.504;2022-07-17T00:33:09;15.70;84.60
13436;DHT22;6790;49.520;8.504;2022-07-17T00:35:35;15.50;87.00
13436;DHT22;6790;49.520;8.504;2022-07-17T00:38:01;15.40;86.70
13436;DHT22;6790;49.520;8.504;2022-07-17T00:40:26;15.20;87.50
13436;DHT22;6790;49.520;8.504;2022-07-17T00:42:52;15.10;88.80
13436;DHT22;6790;49.520;8.504;2022-07-17T00:45:18;15.00;90.10
13436;DHT22;6790;49.520;8.504;2022-07-17T00:47:59;15.00;90.20
13436;DHT22;6790;49.520;8.504;2022-07-17T00:50:34;14.90;90.50
13436;DHT22;6790;49.520;8.504;2022-07-17T00:53:02;14.90;90.90
13436;DHT22;6790;49.520;8.504;2022-07-17T00:55:28;14.90;90.50
13436;DHT22;6790;49.520;8.504;2022-07-17T00:57:55;14.80;90.70
13436;DHT22;6790;49.520;8.504;2022-07-17T01:00:22;14.80;90.80
13436;DHT22;6790;49.520;8.504;2022-07-17T01:02:50;14.70;90.70
13436;DHT22;6790;49.520;8.504;2022-07-17T01:05:18;14.80;91.40
13436;DHT22;6790;49.520;8.504;2022-07-17T01:07:45;14.80;91.00
13436;DHT22;6790;49.520;8.504;2022-07-17T01:10:13;14.80;91.10
13436;DHT22;6790;49.520;8.504;2022-07-17T01:12:39;14.80;91.00
13436;DHT22;6790;49.520;8.504;2022-07-17T01:15:09;14.70;91.10
13436;DHT22;6790;49.520;8.504;2022-07-17T01:17:36;14.60;91.40
13436;DHT22;6790;49.520;8.504;2022-07-17T01:20:07;14.50;92.10
13436;DHT22;6790;49.520;8.504;2022-07-17T01:22:49;14.50;92.60
13436;DHT22;6790;49.520;8.504;2022-07-17T01:25:21;14.50;92.30
13436;DHT22;6790;49.520;8.504;2022-07-17T01:27:47;14.60;91.70
13436;DHT22;6790;49.520;8.504;2022-07-17T01:30:13;14.70;91.60
13436;DHT22;6790;49.520;8.504;2022-07-17T01:32:40;14.70;91.90
13436;DHT22;6790;49.520;8.504;2022-07-17T01:35:08;14.70;91.40
13436;DHT22;6790;49.520;8.504;2022-07-17T01:37:37;14.60;92.10
13436;DHT22;6790;49.520;8.504;2022-07-17T01:40:07;14.60;91.90
13436;DHT22;6790;49.520;8.504;2022-07-17T01:42:35;14.50;92.60
13436;DHT22;6790;49.520;8.504;2022-07-17T01:45:02;14.40;92.60
13436;DHT22;6790;49.520;8.504;2022-07-17T01:47:28;14.40;93.20
13436;DHT22;6790;49.520;8.504;2022-07-17T01:49:55;14.20;93.00
13436;DHT22;6790;49.520;8.504;2022-07-17T01:52:23;14.20;93.70
13436;DHT22;6790;49.520;8.504;2022-07-17T01:54:50;14.30;92.30
13436;DHT22;6790;49.520;8.504;2022-07-17T01:57:17;14.40;93.00
13436;DHT22;6790;49.520;8.504;2022-07-17T01:59:43;14.30;93.20
13436;DHT22;6790;49.520;8.504;2022-07-17T02:02:10;14.30;93.60
13436;DHT22;6790;49.520;8.504;2022-07-17T02:04:38;14.20;93.60
13436;DHT22;6790;49.520;8.504;2022-07-17T02:07:08;14.20;94.00
13436;DHT22;6790;49.520;8.504;2022-07-17T02:09:34;14.20;93.90
13436;DHT22;6790;49.520;8.504;2022-07-17T02:12:00;14.10;93.40
13436;DHT22;6790;49.520;8.504;2022-07-17T02:14:26;14.00;93.90
13436;DHT22;6790;49.520;8.504;2022-07-17T02:16:52;14.00;94.40
13436;DHT22;6790;49.520;8.504;2022-07-17T02:19:19;13.90;94.40
13436;DHT22;6790;49.520;8.504;2022-07-17T02:21:46;13.90;94.90
13436;DHT22;6790;49.520;8.504;2022-07-17T02:24:12;13.80;95.00
13436;DHT22;6790;49.520;8.504;2022-07-17T02:26:38;13.80;95.00
13436;DHT22;6790;49.520;8.504;2022-07-17T02:29:04;13.80;95.40
13436;DHT22;6790;49.520;8.504;2022-07-17T02:31:30;13.70;95.50
13436;DHT22;6790;49.520;8.504;2022-07-17T02:33:56;13.70;95.10
13436;DHT22;6790;49.520;8.504;2022-07-17T02:36:22;13.70;95.30
13436;DHT22;6790;49.520;8.504;2022-07-17T02:38:48;13.60;95.30
13436;DHT22;6790;49.520;8.504;2022-07-17T02:41:13;13.60;95.40
13436;DHT22;6790;49.520;8.504;2022-07-17T02:43:41;13.50;95.40
13436;DHT22;6790;49.520;8.504;2022-07-17T02:46:07;13.60;95.70
13436;DHT22;6790;49.520;8.504;2022-07-17T02:48:33;13.70;95.80
13436;DHT22;6790;49.520;8.504;2022-07-17T02:50:59;13.70;95.00
13436;DHT22;6790;49.520;8.504;2022-07-17T02:53:25;13.70;95.60
13436;DHT22;6790;49.520;8.504;2022-07-17T02:55:50;13.70;95.30
13436;DHT22;6790;49.520;8.504;2022-07-17T02:58:16;13.70;95.30
13436;DHT22;6790;49.520;8.504;2022-07-17T03:00:42;13.70;95.00
13436;DHT22;6790;49.520;8.504;2022-07-17T03:03:07;13.70;95.80
13436;DHT22;6790;49.520;8.504;2022-07-17T03:05:33;13.60;95.10
13436;DHT22;6790;49.520;8.504;2022-07-17T03:07:59;13.70;96.00
13436;DHT22;6790;49.520;8.504;2022-07-17T03:10:25;13.60;94.90
13436;DHT22;6790;49.520;8.504;2022-07-17T03:12:50;13.60;94.80
13436;DHT22;6790;49.520;8.504;2022-07-17T03:15:16;13.70;95.00
13436;DHT22;6790;49.520;8.504;2022-07-17T03:17:42;13.60;95.10
13436;DHT22;6790;49.520;8.504;2022-07-17T03:20:09;13.50;95.00
13436;DHT22;6790;49.520;8.504;2022-07-17T03:22:35;13.40;96.30
13436;DHT22;6790;49.520;8.504;2022-07-17T03:25:01;13.40;96.00
13436;DHT22;6790;49.520;8.504;2022-07-17T03:27:27;13.30;96.10
13436;DHT22;6790;49.520;8.504;2022-07-17T03:29:53;13.30;96.20
13436;DHT22;6790;49.520;8.504;2022-07-17T03:32:20;13.20;97.00
13436;DHT22;6790;49.520;8.504;2022-07-17T03:34:47;13.10;96.80
13436;DHT22;6790;49.520;8.504;2022-07-17T03:37:12;13.10;97.00
13436;DHT22;6790;49.520;8.504;2022-07-17T03:39:38;13.10;97.40
13436;DHT22;6790;49.520;8.504;2022-07-17T03:42:04;13.20;97.20
13436;DHT22;6790;49.520;8.504;2022-07-17T03:44:30;13.20;97.30
13436;DHT22;6790;49.520;8.504;2022-07-17T03:46:56;13.30;97.30
13436;DHT22;6790;49.520;8.504;2022-07-17T03:49:21;13.30;96.60
13436;DHT22;6790;49.520;8.504;2022-07-17T03:51:47;13.30;96.50
13436;DHT22;6790;49.520;8.504;2022-07-17T03:54:13;13.40;96.20
13436;DHT22;6790;49.520;8.504;2022-07-17T03:56:40;13.40;96.30
13436;DHT22;6790;49.520;8.504;2022-07-17T03:59:05;13.40;96.50
13436;DHT22;6790;49.520;8.504;2022-07-17T04:01:31;13.30;96.40
13436;DHT22;6790;49.520;8.504;2022-07-17T04:03:57;13.30;96.20
13436;DHT22;6790;49.520;8.504;2022-07-17T04:06:23;13.30;96.50
13436;DHT22;6790;49.520;8.504;2022-07-17T04:08:48;13.40;96.30
13436;DHT22;6790;49.520;8.504;2022-07-17T04:11:14;13.40;96.50
13436;DHT22;6790;49.520;8.504;2022-07-17T04:13:39;13.40;96.30
13436;DHT22;6790;49.520;8.504;2022-07-17T04:16:05;13.40;96.50
13436;DHT22;6790;49.520;8.504;2022-07-17T04:18:35;13.40;96.40
13436;DHT22;6790;49.520;8.504;2022-07-17T04:21:06;13.40;96.60
13436;DHT22;6790;49.520;8.504;2022-07-17T04:23:34;13.50;96.30
13436;DHT22;6790;49.520;8.504;2022-07-17T04:26:01;13.60;96.50
13436;DHT22;6790;49.520;8.504;2022-07-17T04:28:27;13.60;96.00
13436;DHT22;6790;49.520;8.504;2022-07-17T04:30:53;13.60;95.30
13436;DHT22;6790;49.520;8.504;2022-07-17T04:33:19;13.80;95.30
13436;DHT22;6790;49.520;8.504;2022-07-17T04:35:44;13.70;95.50
13436;DHT22;6790;49.520;8.504;2022-07-17T04:38:10;13.70;95.60
13436;DHT22;6790;49.520;8.504;2022-07-17T04:40:38;13.80;95.80
13436;DHT22;6790;49.520;8.504;2022-07-17T04:43:05;13.80;96.10
13436;DHT22;6790;49.520;8.504;2022-07-17T04:45:31;13.80;95.50
13436;DHT22;6790;49.520;8.504;2022-07-17T04:47:58;13.90;95.20
13436;DHT22;6790;49.520;8.504;2022-07-17T04:50:24;14.00;94.70
13436;DHT22;6790;49.520;8.504;2022-07-17T04:52:49;14.10;95.50
13436;DHT22;6790;49.520;8.504;2022-07-17T04:55:15;14.10;95.10
13436;DHT22;6790;49.520;8.504;2022-07-17T04:57:41;14.10;95.30
13436;DHT22;6790;49.520;8.504;2022-07-17T05:00:08;14.20;95.50
13436;DHT22;6790;49.520;8.504;2022-07-17T05:02:35;14.30;95.20
13436;DHT22;6790;49.520;8.504;2022-07-17T05:05:02;14.40;93.90
13436;DHT22;6790;49.520;8.504;2022-07-17T05:07:28;14.50;94.50
13436;DHT22;6790;49.520;8.504;2022-07-17T05:09:53;14.50;93.20
13436;DHT22;6790;49.520;8.504;2022-07-17T05:12:19;14.60;93.20
13436;DHT22;6790;49.520;8.504;2022-07-17T05:14:45;14.70;93.40
13436;DHT22;6790;49.520;8.504;2022-07-17T05:17:11;14.80;93.00
13436;DHT22;6790;49.520;8.504;2022-07-17T05:19:36;14.90;92.80
13436;DHT22;6790;49.520;8.504;2022-07-17T05:22:03;15.00;92.40
13436;DHT22;6790;49.520;8.504;2022-07-17T05:24:29;15.10;91.90
13436;DHT22;6790;49.520;8.504;2022-07-17T05:26:55;15.10;92.10
13436;DHT22;6790;49.520;8.504;2022-07-17T05:29:21;15.20;91.30
13436;DHT22;6790;49.520;8.504;2022-07-17T05:31:46;15.30;91.10
13436;DHT22;6790;49.520;8.504;2022-07-17T05:34:12;15.50;91.10
13436;DHT22;6790;49.520;8.504;2022-07-17T05:36:38;15.50;92.40
13436;DHT22;6790;49.520;8.504;2022-07-17T05:39:04;15.60;91.50
13436;DHT22;6790;49.520;8.504;2022-07-17T05:41:29;15.70;91.20
13436;DHT22;6790;49.520;8.504;2022-07-17T05:43:55;15.90;90.20
13436;DHT22;6790;49.520;8.504;2022-07-17T05:46:21;16.00;91.10
13436;DHT22;6790;49.520;8.504;2022-07-17T05:48:46;16.10;90.10
13436;DHT22;6790;49.520;8.504;2022-07-17T05:51:12;16.30;87.70
13436;DHT22;6790;49.520;8.504;2022-07-17T05:53:38;16.40;85.80
13436;DHT22;6790;49.520;8.504;2022-07-17T05:56:04;16.60;85.40
13436;DHT22;6790;49.520;8.504;2022-07-17T05:58:29;16.80;84.70
13436;DHT22;6790;49.520;8.504;2022-07-17T06:00:55;16.90;83.30
13436;DHT22;6790;49.520;8.504;2022-07-17T06:03:21;17.00;82.30
13436;DHT22;6790;49.520;8.504;2022-07-17T06:05:46;17.10;83.30
13436;DHT22;6790;49.520;8.504;2022-07-17T06:08:12;17.20;81.30
13436;DHT22;6790;49.520;8.504;2022-07-17T06:10:38;17.30;80.90
13436;DHT22;6790;49.520;8.504;2022-07-17T06:13:05;17.40;80.30
13436;DHT22;6790;49.520;8.504;2022-07-17T06:15:30;17.60;79.80
13436;DHT22;6790;49.520;8.504;2022-07-17T06:18:00;17.70;79.30
13436;DHT22;6790;49.520;8.504;2022-07-17T06:20:27;17.90;78.90
13436;DHT22;6790;49.520;8.504;2022-07-17T06:22:52;18.00;78.10
13436;DHT22;6790;49.520;8.504;2022-07-17T06:25:18;18.20;77.30
13436;DHT22;6790;49.520;8.504;2022-07-17T06:27:44;18.30;75.70
13436;DHT22;6790;49.520;8.504;2022-07-17T06:30:11;18.50;75.70
13436;DHT22;6790;49.520;8.504;2022-07-17T06:32:38;18.70;70.70
13436;DHT22;6790;49.520;8.504;2022-07-17T06:35:05;18.80;69.80
13436;DHT22;6790;49.520;8.504;2022-07-17T06:37:31;18.80;70.70
13436;DHT22;6790;49.520;8.504;2022-07-17T06:39:57;18.90;69.30
13436;DHT22;6790;49.520;8.504;2022-07-17T06:42:23;19.00;67.00
13436;DHT22;6790;49.520;8.504;2022-07-17T06:44:49;19.10;68.30
13436;DHT22;6790;49.520;8.504;2022-07-17T06:47:15;19.30;66.40
13436;DHT22;6790;49.520;8.504;2022-07-17T06:49:40;19.40;64.10
13436;DHT22;6790;49.520;8.504;2022-07-17T06:52:06;19.60;63.20
13436;DHT22;6790;49.520;8.504;2022-07-17T06:54:32;19.70;60.20
13436;DHT22;6790;49.520;8.504;2022-07-17T06:56:57;19.90;60.00
13436;DHT22;6790;49.520;8.504;2022-07-17T06:59:24;20.00;58.50
13436;DHT22;6790;49.520;8.504;2022-07-17T07:01:50;20.00;57.10
13436;DHT22;6790;49.520;8.504;2022-07-17T07:04:16;20.10;56.90
13436;DHT22;6790;49.520;8.504;2022-07-17T07:06:41;20.30;57.90
13436;DHT22;6790;49.520;8.504;2022-07-17T07:09:07;20.40;58.50
13436;DHT22;6790;49.520;8.504;2022-07-17T07:11:33;20.50;56.70
13436;DHT22;6790;49.520;8.504;2022-07-17T07:14:00;20.70;56.60
13436;DHT22;6790;49.520;8.504;2022-07-17T07:16:25;20.80;55.90
13436;DHT22;6790;49.520;8.504;2022-07-17T07:18:51;20.90;56.30
13436;DHT22;6790;49.520;8.504;2022-07-17T07:21:17;21.20;56.50
13436;DHT22;6790;49.520;8.504;2022-07-17T07:23:43;21.30;53.60
13436;DHT22;6790;49.520;8.504;2022-07-17T07:26:08;21.40;53.80
13436;DHT22;6790;49.520;8.504;2022-07-17T07:28:34;21.60;53.10
13436;DHT22;6790;49.520;8.504;2022-07-17T07:31:00;21.50;51.30
13436;DHT22;6790;49.520;8.504;2022-07-17T07:33:26;21.60;48.90
13436;DHT22;6790;49.520;8.504;2022-07-17T07:35:52;21.70;50.10
13436;DHT22;6790;49.520;8.504;2022-07-17T07:38:17;22.00;52.10
13436;DHT22;6790;49.520;8.504;2022-07-17T07:40:43;22.10;49.40
13436;DHT22;6790;49.520;8.504;2022-07-17T07:43:09;22.10;47.00
13436;DHT22;6790;49.520;8.504;2022-07-17T07:45:35;22.20;46.80
13436;DHT22;6790;49.520;8.504;2022-07-17T07:48:00;22.40;46.50
13436;DHT22;6790;49.520;8.504;2022-07-17T07:50:26;22.60;46.20
13436;DHT22;6790;49.520;8.504;2022-07-17T07:52:54;23.00;45.10
13436;DHT22;6790;49.520;8.504;2022-07-17T07:55:19;23.10;45.00
13436;DHT22;6790;49.520;8.504;2022-07-17T07:57:47;22.90;42.00
13436;DHT22;6790;49.520;8.504;2022-07-17T08:00:14;23.00;41.00
13436;DHT22;6790;49.520;8.504;2022-07-17T08:02:40;23.10;42.40
13436;DHT22;6790;49.520;8.504;2022-07-17T08:05:07;23.50;41.80
13436;DHT22;6790;49.520;8.504;2022-07-17T08:07:34;23.70;42.60
13436;DHT22;6790;49.520;8.504;2022-07-17T08:10:01;23.70;38.80
13436;DHT22;6790;49.520;8.504;2022-07-17T08:12:26;23.90;39.20
13436;DHT22;6790;49.520;8.504;2022-07-17T08:14:52;23.50;40.40
13436;DHT22;6790;49.520;8.504;2022-07-17T08:17:18;23.60;40.70
13436;DHT22;6790;49.520;8.504;2022-07-17T08:19:45;23.90;40.30
13436;DHT22;6790;49.520;8.504;2022-07-17T08:22:11;24.10;37.00
13436;DHT22;6790;49.520;8.504;2022-07-17T08:24:37;24.20;37.40
13436;DHT22;6790;49.520;8.504;2022-07-17T08:27:04;24.40;36.30
13436;DHT22;6790;49.520;8.504;2022-07-17T08:29:30;24.40;36.80
13436;DHT22;6790;49.520;8.504;2022-07-17T08:31:56;24.60;35.50
13436;DHT22;6790;49.520;8.504;2022-07-17T08:34:22;24.70;35.90
13436;DHT22;6790;49.520;8.504;2022-07-17T08:36:48;24.90;34.30
13436;DHT22;6790;49.520;8.504;2022-07-17T08:39:13;24.80;34.60
13436;DHT22;6790;49.520;8.504;2022-07-17T08:41:39;24.80;32.70
13436;DHT22;6790;49.520;8.504;2022-07-17T08:44:06;24.80;32.10
13436;DHT22;6790;49.520;8.504;2022-07-17T08:46:35;25.20;33.80
13436;DHT22;6790;49.520;8.504;2022-07-17T08:49:03;25.50;30.70
13436;DHT22;6790;49.520;8.504;2022-07-17T08:51:30;25.50;30.70
13436;DHT22;6790;49.520;8.504;2022-07-17T08:53:57;25.20;31.50
13436;DHT22;6790;49.520;8.504;2022-07-17T08:56:24;25.30;30.70
13436;DHT22;6790;49.520;8.504;2022-07-17T08:58:51;25.30;30.70
13436;DHT22;6790;49.520;8.504;2022-07-17T09:01:19;25.20;30.00
13436;DHT22;6790;49.520;8.504;2022-07-17T09:03:58;25.50;33.20
13436;DHT22;6790;49.520;8.504;2022-07-17T09:06:32;25.90;31.80
13436;DHT22;6790;49.520;8.504;2022-07-17T09:09:13;25.60;30.00
13436;DHT22;6790;49.520;8.504;2022-07-17T09:11:50;25.60;32.70
13436;DHT22;6790;49.520;8.504;2022-07-17T09:14:18;25.40;30.10
13436;DHT22;6790;49.520;8.504;2022-07-17T09:17:11;25.20;29.30
13436;DHT22;6790;49.520;8.504;2022-07-17T09:19:40;25.70;30.40
13436;DHT22;6790;49.520;8.504;2022-07-17T09:22:22;26.00;29.80
13436;DHT22;6790;49.520;8.504;2022-07-17T09:29:51;26.30;28.50
13436;DHT22;6790;49.520;8.504;2022-07-17T09:32:30;26.00;28.40
13436;DHT22;6790;49.520;8.504;2022-07-17T09:35:00;26.20;27.70
13436;DHT22;6790;49.520;8.504;2022-07-17T09:37:28;26.40;27.50
13436;DHT22;6790;49.520;8.504;2022-07-17T09:39:55;26.50;27.50
13436;DHT22;6790;49.520;8.504;2022-07-17T09:42:32;26.50;26.60
13436;DHT22;6790;49.520;8.504;2022-07-17T09:47:30;26.80;26.00
13436;DHT22;6790;49.520;8.504;2022-07-17T09:49:58;26.90;30.60
13436;DHT22;6790;49.520;8.504;2022-07-17T09:52:30;27.20;27.90
13436;DHT22;6790;49.520;8.504;2022-07-17T09:54:58;26.20;26.40
13436;DHT22;6790;49.520;8.504;2022-07-17T09:57:26;26.60;27.70
13436;DHT22;6790;49.520;8.504;2022-07-17T09:59:56;27.20;27.50
13436;DHT22;6790;49.520;8.504;2022-07-17T10:02:24;27.20;26.40
13436;DHT22;6790;49.520;8.504;2022-07-17T10:04:51;27.50;24.50
13436;DHT22;6790;49.520;8.504;2022-07-17T10:07:18;27.70;25.60
13436;DHT22;6790;49.520;8.504;2022-07-17T10:09:45;27.50;27.10
13436;DHT22;6790;49.520;8.504;2022-07-17T10:12:30;27.10;24.90
13436;DHT22;6790;49.520;8.504;2022-07-17T10:14:56;27.20;27.20
13436;DHT22;6790;49.520;8.504;2022-07-17T10:17:22;26.90;36.80
13436;DHT22;6790;49.520;8.504;2022-07-17T10:19:58;27.00;31.40
13436;DHT22;6790;49.520;8.504;2022-07-17T10:22:24;27.00;30.80
13436;DHT22;6790;49.520;8.504;2022-07-17T10:24:53;27.50;26.20
13436;DHT22;6790;49.520;8.504;2022-07-17T10:27:26;27.30;24.60
13436;DHT22;6790;49.520;8.504;2022-07-17T10:32:31;27.20;29.60
13436;DHT22;6790;49.520;8.504;2022-07-17T10:35:00;27.00;27.20
13436;DHT22;6790;49.520;8.504;2022-07-17T10:40:06;27.00;23.90
13436;DHT22;6790;49.520;8.504;2022-07-17T10:45:21;27.40;28.20
13436;DHT22;6790;49.520;8.504;2022-07-17T10:50:44;27.50;30.30
13436;DHT22;6790;49.520;8.504;2022-07-17T10:53:30;27.90;27.90
13436;DHT22;6790;49.520;8.504;2022-07-17T10:56:05;27.80;30.60
13436;DHT22;6790;49.520;8.504;2022-07-17T10:58:33;28.10;24.20
13436;DHT22;6790;49.520;8.504;2022-07-17T11:01:05;28.10;27.90
13436;DHT22;6790;49.520;8.504;2022-07-17T11:03:54;27.40;23.00
13436;DHT22;6790;49.520;8.504;2022-07-17T11:06:29;28.10;29.00
13436;DHT22;6790;49.520;8.504;2022-07-17T11:08:57;28.00;27.90
13436;DHT22;6790;49.520;8.504;2022-07-17T11:14:12;28.00;33.60
13436;DHT22;6790;49.520;8.504;2022-07-17T11:19:35;28.10;30.70
13436;DHT22;6790;49.520;8.504;2022-07-17T11:22:10;28.10;24.90
13436;DHT22;6790;49.520;8.504;2022-07-17T11:24:38;28.60;24.80
13436;DHT22;6790;49.520;8.504;2022-07-17T11:27:05;28.80;23.20
13436;DHT22;6790;49.520;8.504;2022-07-17T11:29:39;28.50;27.20
13436;DHT22;6790;49.520;8.504;2022-07-17T11:32:06;28.30;27.70
13436;DHT22;6790;49.520;8.504;2022-07-17T11:34:33;28.70;28.90
13436;DHT22;6790;49.520;8.504;2022-07-17T11:37:04;29.00;28.10
13436;DHT22;6790;49.520;8.504;2022-07-17T11:39:45;28.90;27.30
13436;DHT22;6790;49.520;8.504;2022-07-17T11:42:15;28.90;25.60
13436;DHT22;6790;49.520;8.504;2022-07-17T11:44:42;29.10;27.70
13436;DHT22;6790;49.520;8.504;2022-07-17T11:47:09;29.20;29.00
13436;DHT22;6790;49.520;8.504;2022-07-17T11:49:37;29.30;23.40
13436;DHT22;6790;49.520;8.504;2022-07-17T11:52:17;29.30;23.40
13436;DHT22;6790;49.520;8.504;2022-07-17T11:54:55;29.30;27.80
13436;DHT22;6790;49.520;8.504;2022-07-17T11:57:22;29.20;27.50
13436;DHT22;6790;49.520;8.504;2022-07-17T11:59:51;29.10;23.00
13436;DHT22;6790;49.520;8.504;2022-07-17T12:02:20;28.90;24.70
13436;DHT22;6790;49.520;8.504;2022-07-17T12:04:56;29.10;26.20
13436;DHT22;6790;49.520;8.504;2022-07-17T12:07:25;29.40;25.60
13436;DHT22;6790;49.520;8.504;2022-07-17T12:09:53;29.40;24.10
13436;DHT22;6790;49.520;8.504;2022-07-17T12:12:24;29.50;24.20
13436;DHT22;6790;49.520;8.504;2022-07-17T12:14:55;29.50;25.70
13436;DHT22;6790;49.520;8.504;2022-07-17T12:17:24;29.50;22.10
13436;DHT22;6790;49.520;8.504;2022-07-17T12:19:51;29.70;20.80
13436;DHT22;6790;49.520;8.504;2022-07-17T12:22:17;29.50;23.40
13436;DHT22;6790;49.520;8.504;2022-07-17T12:24:45;29.50;24.20
13436;DHT22;6790;49.520;8.504;2022-07-17T12:27:15;29.50;29.30
13436;DHT22;6790;49.520;8.504;2022-07-17T12:29:43;29.50;22.30
13436;DHT22;6790;49.520;8.504;2022-07-17T12:32:12;29.80;21.90
13436;DHT22;6790;49.520;8.504;2022-07-17T12:34:42;29.70;22.50
13436;DHT22;6790;49.520;8.504;2022-07-17T12:37:12;29.60;20.70
13436;DHT22;6790;49.520;8.504;2022-07-17T12:39:43;29.90;20.80
13436;DHT22;6790;49.520;8.504;2022-07-17T12:42:09;30.20;20.20
13436;DHT22;6790;49.520;8.504;2022-07-17T12:44:38;30.20;20.00
13436;DHT22;6790;49.520;8.504;2022-07-17T12:47:04;30.40;19.80
13436;DHT22;6790;49.520;8.504;2022-07-17T12:49:30;30.00;26.80
13436;DHT22;6790;49.520;8.504;2022-07-17T12:51:56;29.60;28.90
13436;DHT22;6790;49.520;8.504;2022-07-17T12:54:22;29.40;27.70
13436;DHT22;6790;49.520;8.504;2022-07-17T12:56:49;28.90;31.90
13436;DHT22;6790;49.520;8.504;2022-07-17T12:59:14;28.70;27.20
13436;DHT22;6790;49.520;8.504;2022-07-17T13:01:40;28.80;28.70
13436;DHT22;6790;49.520;8.504;2022-07-17T13:04:06;28.50;29.50
13436;DHT22;6790;49.520;8.504;2022-07-17T13:06:32;27.90;33.40
13436;DHT22;6790;49.520;8.504;2022-07-17T13:08:59;27.80;29.90
13436;DHT22;6790;49.520;8.504;2022-07-17T13:11:25;28.00;29.70
13436;DHT22;6790;49.520;8.504;2022-07-17T13:13:51;28.10;29.40
13436;DHT22;6790;49.520;8.504;2022-07-17T13:16:16;27.50;31.70
13436;DHT22;6790;49.520;8.504;2022-07-17T13:18:42;27.80;32.90
13436;DHT22;6790;49.520;8.504;2022-07-17T13:21:08;27.70;33.20
13436;DHT22;6790;49.520;8.504;2022-07-17T13:23:35;27.60;36.30
13436;DHT22;6790;49.520;8.504;2022-07-17T13:26:02;28.10;33.80
13436;DHT22;6790;49.520;8.504;2022-07-17T13:28:28;28.40;28.80
13436;DHT22;6790;49.520;8.504;2022-07-17T13:30:54;28.70;24.30
13436;DHT22;6790;49.520;8.504;2022-07-17T13:33:21;28.60;23.00
13436;DHT22;6790;49.520;8.504;2022-07-17T13:35:47;28.40;18.70
13436;DHT22;6790;49.520;8.504;2022-07-17T13:38:12;28.90;20.40
13436;DHT22;6790;49.520;8.504;2022-07-17T13:40:38;28.90;29.40
13436;DHT22;6790;49.520;8.504;2022-07-17T13:43:04;28.50;27.90
13436;DHT22;6790;49.520;8.504;2022-07-17T13:45:30;28.30;24.20
13436;DHT22;6790;49.520;8.504;2022-07-17T13:47:57;28.50;20.20
13436;DHT22;6790;49.520;8.504;2022-07-17T13:50:23;29.10;22.20
13436;DHT22;6790;49.520;8.504;2022-07-17T13:52:49;29.00;25.20
13436;DHT22;6790;49.520;8.504;2022-07-17T13:55:15;29.20;26.70
13436;DHT22;6790;49.520;8.504;2022-07-17T13:57:42;29.20;31.00
13436;DHT22;6790;49.520;8.504;2022-07-17T14:00:09;29.10;32.00
13436;DHT22;6790;49.520;8.504;2022-07-17T14:02:36;28.90;29.90
13436;DHT22;6790;49.520;8.504;2022-07-17T14:05:04;28.80;31.30
13436;DHT22;6790;49.520;8.504;2022-07-17T14:07:30;29.20;26.30
13436;DHT22;6790;49.520;8.504;2022-07-17T14:09:56;29.60;19.90
13436;DHT22;6790;49.520;8.504;2022-07-17T14:12:22;29.80;27.20
13436;DHT22;6790;49.520;8.504;2022-07-17T14:14:47;29.70;28.00
13436;DHT22;6790;49.520;8.504;2022-07-17T14:17:13;30.20;22.00
13436;DHT22;6790;49.520;8.504;2022-07-17T14:19:39;30.10;20.20
13436;DHT22;6790;49.520;8.504;2022-07-17T14:22:05;30.10;22.40
13436;DHT22;6790;49.520;8.504;2022-07-17T14:24:31;30.10;25.80
13436;DHT22;6790;49.520;8.504;2022-07-17T14:26:57;30.20;21.20
13436;DHT22;6790;49.520;8.504;2022-07-17T14:29:22;30.50;20.30
13436;DHT22;6790;49.520;8.504;2022-07-17T14:31:49;30.50;18.90
13436;DHT22;6790;49.520;8.504;2022-07-17T14:34:15;29.90;19.50
13436;DHT22;6790;49.520;8.504;2022-07-17T14:36:42;29.30;23.50
13436;DHT22;6790;49.520;8.504;2022-07-17T14:39:08;29.20;21.40
13436;DHT22;6790;49.520;8.504;2022-07-17T14:41:34;29.10;21.10
13436;DHT22;6790;49.520;8.504;2022-07-17T14:43:59;29.40;20.60
13436;DHT22;6790;49.520;8.504;2022-07-17T14:46:25;29.50;18.80
13436;DHT22;6790;49.520;8.504;2022-07-17T14:48:51;29.40;19.00
13436;DHT22;6790;49.520;8.504;2022-07-17T14:51:17;29.20;22.50
13436;DHT22;6790;49.520;8.504;2022-07-17T14:53:42;29.20;20.70
13436;DHT22;6790;49.520;8.504;2022-07-17T14:56:08;29.30;19.80
13436;DHT22;6790;49.520;8.504;2022-07-17T14:58:34;29.40;19.00
13436;DHT22;6790;49.520;8.504;2022-07-17T15:01:00;29.40;16.60
13436;DHT22;6790;49.520;8.504;2022-07-17T15:03:26;29.40;17.90
13436;DHT22;6790;49.520;8.504;2022-07-17T15:05:52;29.40;21.40
13436;DHT22;6790;49.520;8.504;2022-07-17T15:08:17;29.30;17.10
13436;DHT22;6790;49.520;8.504;2022-07-17T15:10:43;29.30;17.80
13436;DHT22;6790;49.520;8.504;2022-07-17T15:13:09;29.10;20.50
13436;DHT22;6790;49.520;8.504;2022-07-17T15:15:35;29.00;21.00
13436;DHT22;6790;49.520;8.504;2022-07-17T15:18:00;28.90;20.20
13436;DHT22;6790;49.520;8.504;2022-07-17T15:20:26;28.70;23.10
13436;DHT22;6790;49.520;8.504;2022-07-17T15:22:52;28.80;19.00
13436;DHT22;6790;49.520;8.504;2022-07-17T15:25:18;28.40;25.00
13436;DHT22;6790;49.520;8.504;2022-07-17T15:27:44;28.00;19.40
13436;DHT22;6790;49.520;8.504;2022-07-17T15:30:09;28.30;17.30
13436;DHT22;6790;49.520;8.504;2022-07-17T15:32:36;28.50;26.20
13436;DHT22;6790;49.520;8.504;2022-07-17T15:35:03;27.80;27.10
13436;DHT22;6790;49.520;8.504;2022-07-17T15:37:30;26.80;32.20
13436;DHT22;6790;49.520;8.504;2022-07-17T15:39:56;26.90;27.40
13436;DHT22;6790;49.520;8.504;2022-07-17T15:42:25;27.50;23.90
13436;DHT22;6790;49.520;8.504;2022-07-17T15:44:51;27.80;27.20
13436;DHT22;6790;49.520;8.504;2022-07-17T15:47:17;27.50;24.10
13436;DHT22;6790;49.520;8.504;2022-07-17T15:49:42;28.10;22.30
13436;DHT22;6790;49.520;8.504;2022-07-17T15:52:08;28.30;21.70
13436;DHT22;6790;49.520;8.504;2022-07-17T15:54:43;27.90;22.80
13436;DHT22;6790;49.520;8.504;2022-07-17T15:57:09;28.10;20.10
13436;DHT22;6790;49.520;8.504;2022-07-17T15:59:34;27.40;23.50
13436;DHT22;6790;49.520;8.504;2022-07-17T16:02:00;27.10;25.10
13436;DHT22;6790;49.520;8.504;2022-07-17T16:04:26;26.90;23.00
13436;DHT22;6790;49.520;8.504;2022-07-17T16:06:52;27.30;22.30
13436;DHT22;6790;49.520;8.504;2022-07-17T16:09:17;27.30;19.90